<?xml version="1.0" encoding="UTF-8" standalone="no" ?>
<gpx xmlns="http://www.topografix.com/GPX/1/1" xmlns:xsi="http://www.w3.org/2001/XMLSchema-instance" xsi:schemaLocation="http://www.topografix.com/GPX/1/1 http://www.topografix.com/GPX/1/1/gpx.xsd" version="1.1" creator="VisuGPX - https://www.visugpx.com">
  <metadata>
    <name>Corse 2022 Monte Cervezu Randonnée pédestre J05/08</name>
    <desc><![CDATA[
<p>Type: Marche<br/>Heure de départ: 11:25 11 sept. 2022<br/>Heure d'arrivée: 16:47 11 sept. 2022<br/>Distance: 12,2 km (05:22)<br/>Temps déplacement: 04:24<br/>Vitesse moyenne: 2,27 km/h<br/>Vitesse moyenne mouv.: 2,77 km/h<br/>Vitesse Max.: 7,79 km/h<br/>Altitude minimale: 616 m<br/>Altitude maximale: 1627 m<br/>Vitesse de montée: 504,6 m/h<br/>Vitesse de descente: 534,8 m/h<br/>Gain d'altitude: 1082 m<br/>Perte d'altitude: 1114 m<br/>Temps de montée: 02:08<br/>Temps de descente: 02:05<br/></p><hr align="center" width="480" style="height: 2px; width: 517px"/>]]></desc>
  </metadata>
  <wpt lat="42.12951" lon="8.87551">
    <ele>677.2</ele>
    <type><![CDATA[Point de départ]]></type>
  </wpt>
  <wpt lat="42.13236" lon="8.89437">
    <ele>1188.6</ele>
    <desc><![CDATA[<p><br /><h3>Nom: Segment: 1</h3><br />Type: Indéfini<br/>Heure de départ: 11:25 11 sept. 2022<br/>Heure d'arrivée: 14:48 11 sept. 2022<br/>Distance: 5,7km (03:23)<br/>Temps déplacement: 02:27<br/>Vitesse moyenne: 1,67 km/h<br/>Vitesse moyenne mouv.: 2,31 km/h<br/>Vitesse Max.: 7,79 km/h<br/>Altitude minimale: 681 m<br/>Altitude maximale: 1621 m<br/>Vitesse de montée: 546,2 m/h<br/>Vitesse de descente: 612,9 m/h<br/>Gain d'altitude: 935 m<br/>Perte d'altitude: 398 m<br/>Temps de montée: 01:42<br/>Temps de descente: 00:38<br/></p>]]></desc>
    <type><![CDATA[Point d'arrivée]]></type>
  </wpt>
  <wpt lat="42.12974" lon="8.87559">
    <ele>670.5</ele>
    <desc><![CDATA[<p><br /><h3>Nom: Segment: 1</h3><br />Type: Indéfini<br/>Heure de départ: 11:25 11 sept. 2022<br/>Heure d'arrivée: 16:47 11 sept. 2022<br/>Distance: 11,8km (05:22)<br/>Temps déplacement: 04:22<br/>Vitesse moyenne: 2,19 km/h<br/>Vitesse moyenne mouv.: 2,69 km/h<br/>Vitesse Max.: 7,79 km/h<br/>Altitude minimale: 619 m<br/>Altitude maximale: 1621 m<br/>Vitesse de montée: 524,4 m/h<br/>Vitesse de descente: 502,8 m/h<br/>Gain d'altitude: 1011 m<br/>Perte d'altitude: 921 m<br/>Temps de montée: 01:55<br/>Temps de descente: 01:49<br/></p>]]></desc>
    <type><![CDATA[Point d'arrivée]]></type>
  </wpt>
  <trk>
    <name><![CDATA[2022-09-11 11:25:02 Monte Cervezu]]></name>
    <desc><![CDATA[<p>Type: Marche<br/>Heure de départ: 11:25 11 sept. 2022<br/>Heure d'arrivée: 16:47 11 sept. 2022<br/>Distance: 12,2 km (05:22)<br/>Temps déplacement: 04:24<br/>Vitesse moyenne: 2,27 km/h<br/>Vitesse moyenne mouv.: 2,77 km/h<br/>Vitesse Max.: 7,79 km/h<br/>Altitude minimale: 616 m<br/>Altitude maximale: 1627 m<br/>Vitesse de montée: 504,6 m/h<br/>Vitesse de descente: 534,8 m/h<br/>Gain d'altitude: 1082 m<br/>Perte d'altitude: 1114 m<br/>Temps de montée: 02:08<br/>Temps de descente: 02:05<br/></p><hr align="center" width="480" style="height: 2px; width: 517px"/>]]></desc>
    <extensions>
      <line xmlns="http://www.topografix.com/GPX/gpx_style/0/2">
        <color>0000FF</color>
        <width>4</width>
      </line>
    </extensions>
    <trkseg>
      <trkpt lat="42.12951" lon="8.87551">
        <ele>688.35</ele>
        <time>2022-09-11T09:25:03.000Z</time>
      </trkpt>
      <trkpt lat="42.12974" lon="8.8756">
        <ele>692.87</ele>
        <time>2022-09-11T09:25:04.000Z</time>
      </trkpt>
      <trkpt lat="42.12992" lon="8.87567">
        <ele>691.75</ele>
        <time>2022-09-11T09:25:08.000Z</time>
      </trkpt>
      <trkpt lat="42.13011" lon="8.87567">
        <ele>676.6</ele>
        <time>2022-09-11T09:25:26.000Z</time>
      </trkpt>
      <trkpt lat="42.1302" lon="8.87546">
        <ele>679.22</ele>
        <time>2022-09-11T09:25:44.000Z</time>
      </trkpt>
      <trkpt lat="42.13033" lon="8.87528">
        <ele>675.44</ele>
        <time>2022-09-11T09:26:25.000Z</time>
      </trkpt>
      <trkpt lat="42.13051" lon="8.87529">
        <ele>673.31</ele>
        <time>2022-09-11T09:26:41.000Z</time>
      </trkpt>
      <trkpt lat="42.13051" lon="8.87504">
        <ele>675.87</ele>
        <time>2022-09-11T09:27:08.000Z</time>
      </trkpt>
      <trkpt lat="42.13069" lon="8.87504">
        <ele>675.73</ele>
        <time>2022-09-11T09:27:29.000Z</time>
      </trkpt>
      <trkpt lat="42.13082" lon="8.87486">
        <ele>691.49</ele>
        <time>2022-09-11T09:28:51.000Z</time>
      </trkpt>
      <trkpt lat="42.13098" lon="8.87475">
        <ele>697.14</ele>
        <time>2022-09-11T09:29:30.000Z</time>
      </trkpt>
      <trkpt lat="42.13115" lon="8.87485">
        <ele>700.27</ele>
        <time>2022-09-11T09:29:57.000Z</time>
      </trkpt>
      <trkpt lat="42.13133" lon="8.87489">
        <ele>707.3</ele>
        <time>2022-09-11T09:30:23.000Z</time>
      </trkpt>
      <trkpt lat="42.13151" lon="8.87485">
        <ele>714.63</ele>
        <time>2022-09-11T09:30:56.000Z</time>
      </trkpt>
      <trkpt lat="42.13169" lon="8.87484">
        <ele>720.64</ele>
        <time>2022-09-11T09:31:25.000Z</time>
      </trkpt>
      <trkpt lat="42.13185" lon="8.87496">
        <ele>727.28</ele>
        <time>2022-09-11T09:31:54.000Z</time>
      </trkpt>
      <trkpt lat="42.13198" lon="8.87514">
        <ele>731.85</ele>
        <time>2022-09-11T09:32:25.000Z</time>
      </trkpt>
      <trkpt lat="42.13213" lon="8.87527">
        <ele>733</ele>
        <time>2022-09-11T09:32:48.000Z</time>
      </trkpt>
      <trkpt lat="42.13225" lon="8.87546">
        <ele>732.19</ele>
        <time>2022-09-11T09:33:10.000Z</time>
      </trkpt>
      <trkpt lat="42.1323" lon="8.87569">
        <ele>743.73</ele>
        <time>2022-09-11T09:33:34.000Z</time>
      </trkpt>
      <trkpt lat="42.13248" lon="8.87561">
        <ele>749.53</ele>
        <time>2022-09-11T09:34:09.000Z</time>
      </trkpt>
      <trkpt lat="42.13266" lon="8.87558">
        <ele>760.89</ele>
        <time>2022-09-11T09:34:55.000Z</time>
      </trkpt>
      <trkpt lat="42.13285" lon="8.87558">
        <ele>762.85</ele>
        <time>2022-09-11T09:35:26.000Z</time>
      </trkpt>
      <trkpt lat="42.13302" lon="8.87565">
        <ele>762.66</ele>
        <time>2022-09-11T09:36:19.000Z</time>
      </trkpt>
      <trkpt lat="42.13316" lon="8.87548">
        <ele>774.96</ele>
        <time>2022-09-11T09:36:44.000Z</time>
      </trkpt>
      <trkpt lat="42.13324" lon="8.8757">
        <ele>780.97</ele>
        <time>2022-09-11T09:37:27.000Z</time>
      </trkpt>
      <trkpt lat="42.13316" lon="8.87592">
        <ele>788.08</ele>
        <time>2022-09-11T09:37:52.000Z</time>
      </trkpt>
      <trkpt lat="42.13313" lon="8.87616">
        <ele>793.24</ele>
        <time>2022-09-11T09:38:22.000Z</time>
      </trkpt>
      <trkpt lat="42.13322" lon="8.87638">
        <ele>794.07</ele>
        <time>2022-09-11T09:38:51.000Z</time>
      </trkpt>
      <trkpt lat="42.13336" lon="8.8762">
        <ele>805.46</ele>
        <time>2022-09-11T09:39:38.000Z</time>
      </trkpt>
      <trkpt lat="42.13353" lon="8.87625">
        <ele>818.74</ele>
        <time>2022-09-11T09:40:26.000Z</time>
      </trkpt>
      <trkpt lat="42.1336" lon="8.87648">
        <ele>823.73</ele>
        <time>2022-09-11T09:42:03.000Z</time>
      </trkpt>
      <trkpt lat="42.13366" lon="8.87672">
        <ele>827.46</ele>
        <time>2022-09-11T09:42:25.000Z</time>
      </trkpt>
      <trkpt lat="42.13375" lon="8.87693">
        <ele>831.86</ele>
        <time>2022-09-11T09:42:49.000Z</time>
      </trkpt>
      <trkpt lat="42.13393" lon="8.87701">
        <ele>836.2</ele>
        <time>2022-09-11T09:43:44.000Z</time>
      </trkpt>
      <trkpt lat="42.13411" lon="8.87697">
        <ele>852.07</ele>
        <time>2022-09-11T09:44:56.000Z</time>
      </trkpt>
      <trkpt lat="42.13426" lon="8.87711">
        <ele>856.75</ele>
        <time>2022-09-11T09:45:23.000Z</time>
      </trkpt>
      <trkpt lat="42.13443" lon="8.87721">
        <ele>859.15</ele>
        <time>2022-09-11T09:45:49.000Z</time>
      </trkpt>
      <trkpt lat="42.13454" lon="8.877">
        <ele>867.74</ele>
        <time>2022-09-11T09:46:31.000Z</time>
      </trkpt>
      <trkpt lat="42.13472" lon="8.87698">
        <ele>872.12</ele>
        <time>2022-09-11T09:46:54.000Z</time>
      </trkpt>
      <trkpt lat="42.13483" lon="8.87678">
        <ele>870.82</ele>
        <time>2022-09-11T09:47:15.000Z</time>
      </trkpt>
      <trkpt lat="42.13489" lon="8.87655">
        <ele>879.34</ele>
        <time>2022-09-11T09:47:49.000Z</time>
      </trkpt>
      <trkpt lat="42.13487" lon="8.87629">
        <ele>882.66</ele>
        <time>2022-09-11T09:48:04.000Z</time>
      </trkpt>
      <trkpt lat="42.1348" lon="8.87606">
        <ele>885.48</ele>
        <time>2022-09-11T09:48:24.000Z</time>
      </trkpt>
      <trkpt lat="42.13494" lon="8.87622">
        <ele>885.63</ele>
        <time>2022-09-11T09:48:45.000Z</time>
      </trkpt>
      <trkpt lat="42.13511" lon="8.87633">
        <ele>892.56</ele>
        <time>2022-09-11T09:49:06.000Z</time>
      </trkpt>
      <trkpt lat="42.13506" lon="8.87609">
        <ele>897.25</ele>
        <time>2022-09-11T09:49:30.000Z</time>
      </trkpt>
      <trkpt lat="42.13503" lon="8.87585">
        <ele>903.14</ele>
        <time>2022-09-11T09:49:50.000Z</time>
      </trkpt>
      <trkpt lat="42.13516" lon="8.87566">
        <ele>911.4</ele>
        <time>2022-09-11T09:50:27.000Z</time>
      </trkpt>
      <trkpt lat="42.13523" lon="8.87544">
        <ele>915.18</ele>
        <time>2022-09-11T09:50:53.000Z</time>
      </trkpt>
      <trkpt lat="42.13541" lon="8.87536">
        <ele>926.15</ele>
        <time>2022-09-11T09:51:28.000Z</time>
      </trkpt>
      <trkpt lat="42.13549" lon="8.87558">
        <ele>928.39</ele>
        <time>2022-09-11T09:52:05.000Z</time>
      </trkpt>
      <trkpt lat="42.13563" lon="8.87573">
        <ele>933.93</ele>
        <time>2022-09-11T09:52:27.000Z</time>
      </trkpt>
      <trkpt lat="42.13579" lon="8.87585">
        <ele>937.43</ele>
        <time>2022-09-11T09:52:58.000Z</time>
      </trkpt>
      <trkpt lat="42.1359" lon="8.87564">
        <ele>949.16</ele>
        <time>2022-09-11T09:53:51.000Z</time>
      </trkpt>
      <trkpt lat="42.13599" lon="8.87543">
        <ele>957.89</ele>
        <time>2022-09-11T09:54:21.000Z</time>
      </trkpt>
      <trkpt lat="42.1361" lon="8.87564">
        <ele>971.08</ele>
        <time>2022-09-11T09:54:57.000Z</time>
      </trkpt>
      <trkpt lat="42.13628" lon="8.87568">
        <ele>966.67</ele>
        <time>2022-09-11T09:55:23.000Z</time>
      </trkpt>
      <trkpt lat="42.13643" lon="8.87554">
        <ele>964.08</ele>
        <time>2022-09-11T09:56:03.000Z</time>
      </trkpt>
      <trkpt lat="42.13649" lon="8.87531">
        <ele>982.88</ele>
        <time>2022-09-11T09:57:05.000Z</time>
      </trkpt>
      <trkpt lat="42.13665" lon="8.8752">
        <ele>991.2</ele>
        <time>2022-09-11T09:57:39.000Z</time>
      </trkpt>
      <trkpt lat="42.1368" lon="8.87505">
        <ele>995.95</ele>
        <time>2022-09-11T09:58:22.000Z</time>
      </trkpt>
      <trkpt lat="42.13696" lon="8.87516">
        <ele>1008.21</ele>
        <time>2022-09-11T09:59:08.000Z</time>
      </trkpt>
      <trkpt lat="42.13702" lon="8.87493">
        <ele>1014.94</ele>
        <time>2022-09-11T09:59:47.000Z</time>
      </trkpt>
      <trkpt lat="42.13717" lon="8.87477">
        <ele>1022.3</ele>
        <time>2022-09-11T10:00:37.000Z</time>
      </trkpt>
      <trkpt lat="42.13735" lon="8.87475">
        <ele>1028.38</ele>
        <time>2022-09-11T10:01:05.000Z</time>
      </trkpt>
      <trkpt lat="42.13747" lon="8.87456">
        <ele>1028.11</ele>
        <time>2022-09-11T10:01:40.000Z</time>
      </trkpt>
      <trkpt lat="42.13754" lon="8.87432">
        <ele>1033.75</ele>
        <time>2022-09-11T10:02:04.000Z</time>
      </trkpt>
      <trkpt lat="42.13756" lon="8.87407">
        <ele>1035.26</ele>
        <time>2022-09-11T10:02:21.000Z</time>
      </trkpt>
      <trkpt lat="42.13758" lon="8.87383">
        <ele>1039.73</ele>
        <time>2022-09-11T10:02:42.000Z</time>
      </trkpt>
      <trkpt lat="42.13776" lon="8.87376">
        <ele>1051.87</ele>
        <time>2022-09-11T10:03:31.000Z</time>
      </trkpt>
      <trkpt lat="42.13776" lon="8.87352">
        <ele>1053.3</ele>
        <time>2022-09-11T10:03:55.000Z</time>
      </trkpt>
      <trkpt lat="42.13779" lon="8.87328">
        <ele>1058.79</ele>
        <time>2022-09-11T10:04:34.000Z</time>
      </trkpt>
      <trkpt lat="42.13787" lon="8.87305">
        <ele>1067.61</ele>
        <time>2022-09-11T10:05:19.000Z</time>
      </trkpt>
      <trkpt lat="42.13792" lon="8.87281">
        <ele>1071.35</ele>
        <time>2022-09-11T10:05:42.000Z</time>
      </trkpt>
      <trkpt lat="42.1379" lon="8.87256">
        <ele>1078.98</ele>
        <time>2022-09-11T10:06:08.000Z</time>
      </trkpt>
      <trkpt lat="42.13793" lon="8.87232">
        <ele>1085.61</ele>
        <time>2022-09-11T10:06:45.000Z</time>
      </trkpt>
      <trkpt lat="42.13796" lon="8.87208">
        <ele>1085.95</ele>
        <time>2022-09-11T10:07:04.000Z</time>
      </trkpt>
      <trkpt lat="42.13806" lon="8.87187">
        <ele>1089.17</ele>
        <time>2022-09-11T10:07:31.000Z</time>
      </trkpt>
      <trkpt lat="42.13822" lon="8.87172">
        <ele>1094.03</ele>
        <time>2022-09-11T10:08:13.000Z</time>
      </trkpt>
      <trkpt lat="42.13833" lon="8.87193">
        <ele>1099.4</ele>
        <time>2022-09-11T10:08:33.000Z</time>
      </trkpt>
      <trkpt lat="42.13829" lon="8.87217">
        <ele>1103.63</ele>
        <time>2022-09-11T10:08:57.000Z</time>
      </trkpt>
      <trkpt lat="42.13836" lon="8.87239">
        <ele>1107.74</ele>
        <time>2022-09-11T10:09:22.000Z</time>
      </trkpt>
      <trkpt lat="42.13845" lon="8.87261">
        <ele>1110.9</ele>
        <time>2022-09-11T10:09:51.000Z</time>
      </trkpt>
      <trkpt lat="42.13861" lon="8.87274">
        <ele>1113.28</ele>
        <time>2022-09-11T10:10:26.000Z</time>
      </trkpt>
      <trkpt lat="42.13871" lon="8.87295">
        <ele>1116.06</ele>
        <time>2022-09-11T10:10:45.000Z</time>
      </trkpt>
      <trkpt lat="42.13877" lon="8.87319">
        <ele>1120.5</ele>
        <time>2022-09-11T10:11:00.000Z</time>
      </trkpt>
      <trkpt lat="42.13876" lon="8.87345">
        <ele>1126.31</ele>
        <time>2022-09-11T10:13:59.000Z</time>
      </trkpt>
      <trkpt lat="42.13886" lon="8.87366">
        <ele>1129.47</ele>
        <time>2022-09-11T10:14:13.000Z</time>
      </trkpt>
      <trkpt lat="42.13896" lon="8.87388">
        <ele>1134.81</ele>
        <time>2022-09-11T10:14:28.000Z</time>
      </trkpt>
      <trkpt lat="42.13903" lon="8.87411">
        <ele>1138.46</ele>
        <time>2022-09-11T10:14:49.000Z</time>
      </trkpt>
      <trkpt lat="42.13909" lon="8.87435">
        <ele>1141.09</ele>
        <time>2022-09-11T10:15:15.000Z</time>
      </trkpt>
      <trkpt lat="42.13913" lon="8.87459">
        <ele>1145.36</ele>
        <time>2022-09-11T10:15:39.000Z</time>
      </trkpt>
      <trkpt lat="42.1392" lon="8.87481">
        <ele>1146.15</ele>
        <time>2022-09-11T10:15:56.000Z</time>
      </trkpt>
      <trkpt lat="42.1393" lon="8.87503">
        <ele>1148.68</ele>
        <time>2022-09-11T10:16:11.000Z</time>
      </trkpt>
      <trkpt lat="42.13938" lon="8.87527">
        <ele>1148.86</ele>
        <time>2022-09-11T10:16:26.000Z</time>
      </trkpt>
      <trkpt lat="42.13947" lon="8.87548">
        <ele>1154.99</ele>
        <time>2022-09-11T10:16:41.000Z</time>
      </trkpt>
      <trkpt lat="42.13957" lon="8.87569">
        <ele>1156.2</ele>
        <time>2022-09-11T10:16:56.000Z</time>
      </trkpt>
      <trkpt lat="42.13965" lon="8.87592">
        <ele>1155.73</ele>
        <time>2022-09-11T10:17:10.000Z</time>
      </trkpt>
      <trkpt lat="42.1397" lon="8.87616">
        <ele>1151.42</ele>
        <time>2022-09-11T10:17:50.000Z</time>
      </trkpt>
      <trkpt lat="42.13979" lon="8.87638">
        <ele>1153.15</ele>
        <time>2022-09-11T10:18:04.000Z</time>
      </trkpt>
      <trkpt lat="42.13994" lon="8.87655">
        <ele>1152.89</ele>
        <time>2022-09-11T10:18:18.000Z</time>
      </trkpt>
      <trkpt lat="42.13999" lon="8.87678">
        <ele>1157.93</ele>
        <time>2022-09-11T10:18:37.000Z</time>
      </trkpt>
      <trkpt lat="42.14001" lon="8.87703">
        <ele>1158.74</ele>
        <time>2022-09-11T10:19:28.000Z</time>
      </trkpt>
      <trkpt lat="42.14009" lon="8.87725">
        <ele>1165.75</ele>
        <time>2022-09-11T10:19:46.000Z</time>
      </trkpt>
      <trkpt lat="42.14021" lon="8.87744">
        <ele>1169.82</ele>
        <time>2022-09-11T10:20:04.000Z</time>
      </trkpt>
      <trkpt lat="42.14028" lon="8.87766">
        <ele>1174.72</ele>
        <time>2022-09-11T10:20:24.000Z</time>
      </trkpt>
      <trkpt lat="42.14038" lon="8.87786">
        <ele>1175.37</ele>
        <time>2022-09-11T10:20:38.000Z</time>
      </trkpt>
      <trkpt lat="42.14046" lon="8.8781">
        <ele>1179.85</ele>
        <time>2022-09-11T10:20:52.000Z</time>
      </trkpt>
      <trkpt lat="42.1405" lon="8.87834">
        <ele>1183.39</ele>
        <time>2022-09-11T10:21:09.000Z</time>
      </trkpt>
      <trkpt lat="42.1406" lon="8.87854">
        <ele>1185.62</ele>
        <time>2022-09-11T10:21:31.000Z</time>
      </trkpt>
      <trkpt lat="42.14067" lon="8.87877">
        <ele>1190.47</ele>
        <time>2022-09-11T10:21:52.000Z</time>
      </trkpt>
      <trkpt lat="42.14077" lon="8.87898">
        <ele>1193.24</ele>
        <time>2022-09-11T10:22:11.000Z</time>
      </trkpt>
      <trkpt lat="42.14078" lon="8.87922">
        <ele>1194.12</ele>
        <time>2022-09-11T10:22:30.000Z</time>
      </trkpt>
      <trkpt lat="42.14082" lon="8.87947">
        <ele>1197.33</ele>
        <time>2022-09-11T10:22:46.000Z</time>
      </trkpt>
      <trkpt lat="42.14086" lon="8.87971">
        <ele>1201.23</ele>
        <time>2022-09-11T10:23:09.000Z</time>
      </trkpt>
      <trkpt lat="42.14093" lon="8.87993">
        <ele>1204.42</ele>
        <time>2022-09-11T10:24:07.000Z</time>
      </trkpt>
      <trkpt lat="42.14097" lon="8.88017">
        <ele>1210.69</ele>
        <time>2022-09-11T10:24:30.000Z</time>
      </trkpt>
      <trkpt lat="42.14105" lon="8.88041">
        <ele>1214.23</ele>
        <time>2022-09-11T10:24:54.000Z</time>
      </trkpt>
      <trkpt lat="42.14105" lon="8.88065">
        <ele>1221.44</ele>
        <time>2022-09-11T10:25:32.000Z</time>
      </trkpt>
      <trkpt lat="42.14112" lon="8.88088">
        <ele>1226.7</ele>
        <time>2022-09-11T10:25:59.000Z</time>
      </trkpt>
      <trkpt lat="42.14121" lon="8.88109">
        <ele>1233.92</ele>
        <time>2022-09-11T10:26:23.000Z</time>
      </trkpt>
      <trkpt lat="42.14127" lon="8.88133">
        <ele>1239.02</ele>
        <time>2022-09-11T10:26:45.000Z</time>
      </trkpt>
      <trkpt lat="42.14109" lon="8.88129">
        <ele>1234.92</ele>
        <time>2022-09-11T10:27:16.000Z</time>
      </trkpt>
      <trkpt lat="42.14118" lon="8.88152">
        <ele>1234.73</ele>
        <time>2022-09-11T10:28:18.000Z</time>
      </trkpt>
      <trkpt lat="42.14121" lon="8.88177">
        <ele>1238.63</ele>
        <time>2022-09-11T10:28:46.000Z</time>
      </trkpt>
      <trkpt lat="42.14128" lon="8.882">
        <ele>1242.27</ele>
        <time>2022-09-11T10:29:04.000Z</time>
      </trkpt>
      <trkpt lat="42.14137" lon="8.88221">
        <ele>1246.7</ele>
        <time>2022-09-11T10:29:30.000Z</time>
      </trkpt>
      <trkpt lat="42.14142" lon="8.88245">
        <ele>1253.4</ele>
        <time>2022-09-11T10:30:00.000Z</time>
      </trkpt>
      <trkpt lat="42.14147" lon="8.88268">
        <ele>1256.1</ele>
        <time>2022-09-11T10:30:34.000Z</time>
      </trkpt>
      <trkpt lat="42.14157" lon="8.88289">
        <ele>1258.97</ele>
        <time>2022-09-11T10:31:04.000Z</time>
      </trkpt>
      <trkpt lat="42.14165" lon="8.88311">
        <ele>1262.2</ele>
        <time>2022-09-11T10:32:33.000Z</time>
      </trkpt>
      <trkpt lat="42.14178" lon="8.88328">
        <ele>1267.89</ele>
        <time>2022-09-11T10:32:51.000Z</time>
      </trkpt>
      <trkpt lat="42.14184" lon="8.88351">
        <ele>1270.03</ele>
        <time>2022-09-11T10:33:09.000Z</time>
      </trkpt>
      <trkpt lat="42.14198" lon="8.88368">
        <ele>1277.96</ele>
        <time>2022-09-11T10:33:37.000Z</time>
      </trkpt>
      <trkpt lat="42.14211" lon="8.88385">
        <ele>1285.3</ele>
        <time>2022-09-11T10:34:02.000Z</time>
      </trkpt>
      <trkpt lat="42.14216" lon="8.88408">
        <ele>1291.74</ele>
        <time>2022-09-11T10:34:34.000Z</time>
      </trkpt>
      <trkpt lat="42.14211" lon="8.88432">
        <ele>1291.86</ele>
        <time>2022-09-11T10:35:14.000Z</time>
      </trkpt>
      <trkpt lat="42.14225" lon="8.88449">
        <ele>1298.73</ele>
        <time>2022-09-11T10:35:44.000Z</time>
      </trkpt>
      <trkpt lat="42.14231" lon="8.88472">
        <ele>1308.36</ele>
        <time>2022-09-11T10:36:10.000Z</time>
      </trkpt>
      <trkpt lat="42.14222" lon="8.88493">
        <ele>1311.58</ele>
        <time>2022-09-11T10:37:11.000Z</time>
      </trkpt>
      <trkpt lat="42.14211" lon="8.88512">
        <ele>1298.89</ele>
        <time>2022-09-11T10:38:06.000Z</time>
      </trkpt>
      <trkpt lat="42.14214" lon="8.88536">
        <ele>1304.17</ele>
        <time>2022-09-11T10:38:30.000Z</time>
      </trkpt>
      <trkpt lat="42.14217" lon="8.88561">
        <ele>1316.16</ele>
        <time>2022-09-11T10:38:55.000Z</time>
      </trkpt>
      <trkpt lat="42.14221" lon="8.88585">
        <ele>1325.35</ele>
        <time>2022-09-11T10:39:21.000Z</time>
      </trkpt>
      <trkpt lat="42.14222" lon="8.88609">
        <ele>1331.06</ele>
        <time>2022-09-11T10:39:49.000Z</time>
      </trkpt>
      <trkpt lat="42.14221" lon="8.88634">
        <ele>1335.49</ele>
        <time>2022-09-11T10:40:11.000Z</time>
      </trkpt>
      <trkpt lat="42.14217" lon="8.88659">
        <ele>1336.59</ele>
        <time>2022-09-11T10:40:26.000Z</time>
      </trkpt>
      <trkpt lat="42.14225" lon="8.88682">
        <ele>1341.63</ele>
        <time>2022-09-11T10:40:45.000Z</time>
      </trkpt>
      <trkpt lat="42.14242" lon="8.8869">
        <ele>1342.44</ele>
        <time>2022-09-11T10:41:44.000Z</time>
      </trkpt>
      <trkpt lat="42.1426" lon="8.88686">
        <ele>1343.4</ele>
        <time>2022-09-11T10:42:59.000Z</time>
      </trkpt>
      <trkpt lat="42.14278" lon="8.88691">
        <ele>1345</ele>
        <time>2022-09-11T10:43:17.000Z</time>
      </trkpt>
      <trkpt lat="42.14296" lon="8.887">
        <ele>1348.14</ele>
        <time>2022-09-11T10:43:36.000Z</time>
      </trkpt>
      <trkpt lat="42.14313" lon="8.88708">
        <ele>1351.89</ele>
        <time>2022-09-11T10:43:59.000Z</time>
      </trkpt>
      <trkpt lat="42.14326" lon="8.88725">
        <ele>1351.75</ele>
        <time>2022-09-11T10:44:46.000Z</time>
      </trkpt>
      <trkpt lat="42.1434" lon="8.88742">
        <ele>1358.88</ele>
        <time>2022-09-11T10:45:08.000Z</time>
      </trkpt>
      <trkpt lat="42.14355" lon="8.88757">
        <ele>1365.18</ele>
        <time>2022-09-11T10:45:39.000Z</time>
      </trkpt>
      <trkpt lat="42.1437" lon="8.88772">
        <ele>1366.77</ele>
        <time>2022-09-11T10:46:00.000Z</time>
      </trkpt>
      <trkpt lat="42.14384" lon="8.88787">
        <ele>1370.17</ele>
        <time>2022-09-11T10:46:23.000Z</time>
      </trkpt>
      <trkpt lat="42.14384" lon="8.88812">
        <ele>1367.21</ele>
        <time>2022-09-11T10:46:55.000Z</time>
      </trkpt>
      <trkpt lat="42.14376" lon="8.88833">
        <ele>1371.2</ele>
        <time>2022-09-11T10:47:11.000Z</time>
      </trkpt>
      <trkpt lat="42.14358" lon="8.88841">
        <ele>1379.56</ele>
        <time>2022-09-11T10:47:45.000Z</time>
      </trkpt>
      <trkpt lat="42.1434" lon="8.88834">
        <ele>1385.26</ele>
        <time>2022-09-11T10:48:23.000Z</time>
      </trkpt>
      <trkpt lat="42.14323" lon="8.88825">
        <ele>1387.91</ele>
        <time>2022-09-11T10:48:46.000Z</time>
      </trkpt>
      <trkpt lat="42.14307" lon="8.88836">
        <ele>1394.44</ele>
        <time>2022-09-11T10:49:26.000Z</time>
      </trkpt>
      <trkpt lat="42.14314" lon="8.8886">
        <ele>1393.69</ele>
        <time>2022-09-11T10:50:35.000Z</time>
      </trkpt>
      <trkpt lat="42.14317" lon="8.88884">
        <ele>1394.67</ele>
        <time>2022-09-11T10:52:17.000Z</time>
      </trkpt>
      <trkpt lat="42.14322" lon="8.88908">
        <ele>1394.21</ele>
        <time>2022-09-11T10:52:33.000Z</time>
      </trkpt>
      <trkpt lat="42.1433" lon="8.88931">
        <ele>1390.18</ele>
        <time>2022-09-11T10:52:48.000Z</time>
      </trkpt>
      <trkpt lat="42.14339" lon="8.88953">
        <ele>1390.53</ele>
        <time>2022-09-11T10:53:04.000Z</time>
      </trkpt>
      <trkpt lat="42.14339" lon="8.88977">
        <ele>1389.06</ele>
        <time>2022-09-11T10:53:22.000Z</time>
      </trkpt>
      <trkpt lat="42.14349" lon="8.88999">
        <ele>1388.61</ele>
        <time>2022-09-11T10:54:32.000Z</time>
      </trkpt>
      <trkpt lat="42.14338" lon="8.89019">
        <ele>1391.42</ele>
        <time>2022-09-11T10:54:56.000Z</time>
      </trkpt>
      <trkpt lat="42.1432" lon="8.89022">
        <ele>1389.55</ele>
        <time>2022-09-11T10:55:38.000Z</time>
      </trkpt>
      <trkpt lat="42.14302" lon="8.89018">
        <ele>1390.29</ele>
        <time>2022-09-11T10:55:56.000Z</time>
      </trkpt>
      <trkpt lat="42.14286" lon="8.89031">
        <ele>1391.17</ele>
        <time>2022-09-11T10:56:26.000Z</time>
      </trkpt>
      <trkpt lat="42.14286" lon="8.89055">
        <ele>1398.11</ele>
        <time>2022-09-11T10:56:48.000Z</time>
      </trkpt>
      <trkpt lat="42.14284" lon="8.89079">
        <ele>1405.83</ele>
        <time>2022-09-11T10:57:12.000Z</time>
      </trkpt>
      <trkpt lat="42.14281" lon="8.89103">
        <ele>1415.07</ele>
        <time>2022-09-11T10:57:43.000Z</time>
      </trkpt>
      <trkpt lat="42.14272" lon="8.89125">
        <ele>1416.65</ele>
        <time>2022-09-11T10:58:15.000Z</time>
      </trkpt>
      <trkpt lat="42.14256" lon="8.89136">
        <ele>1425.16</ele>
        <time>2022-09-11T10:58:48.000Z</time>
      </trkpt>
      <trkpt lat="42.14258" lon="8.89161">
        <ele>1437.01</ele>
        <time>2022-09-11T11:00:11.000Z</time>
      </trkpt>
      <trkpt lat="42.14243" lon="8.89175">
        <ele>1445.07</ele>
        <time>2022-09-11T11:01:02.000Z</time>
      </trkpt>
      <trkpt lat="42.14232" lon="8.89194">
        <ele>1450.44</ele>
        <time>2022-09-11T11:01:48.000Z</time>
      </trkpt>
      <trkpt lat="42.14221" lon="8.89213">
        <ele>1454.5</ele>
        <time>2022-09-11T11:05:34.000Z</time>
      </trkpt>
      <trkpt lat="42.14214" lon="8.89237">
        <ele>1465.97</ele>
        <time>2022-09-11T11:06:17.000Z</time>
      </trkpt>
      <trkpt lat="42.142" lon="8.89252">
        <ele>1472.87</ele>
        <time>2022-09-11T11:07:08.000Z</time>
      </trkpt>
      <trkpt lat="42.14182" lon="8.89257">
        <ele>1483.98</ele>
        <time>2022-09-11T11:07:54.000Z</time>
      </trkpt>
      <trkpt lat="42.14167" lon="8.89271">
        <ele>1489.94</ele>
        <time>2022-09-11T11:08:46.000Z</time>
      </trkpt>
      <trkpt lat="42.1416" lon="8.89293">
        <ele>1497.03</ele>
        <time>2022-09-11T11:09:24.000Z</time>
      </trkpt>
      <trkpt lat="42.14146" lon="8.89309">
        <ele>1506.4</ele>
        <time>2022-09-11T11:10:10.000Z</time>
      </trkpt>
      <trkpt lat="42.14131" lon="8.89323">
        <ele>1516.16</ele>
        <time>2022-09-11T11:10:56.000Z</time>
      </trkpt>
      <trkpt lat="42.14117" lon="8.89339">
        <ele>1522.34</ele>
        <time>2022-09-11T11:11:32.000Z</time>
      </trkpt>
      <trkpt lat="42.141" lon="8.89348">
        <ele>1527.51</ele>
        <time>2022-09-11T11:12:01.000Z</time>
      </trkpt>
      <trkpt lat="42.14088" lon="8.89369">
        <ele>1530.73</ele>
        <time>2022-09-11T11:12:38.000Z</time>
      </trkpt>
      <trkpt lat="42.14085" lon="8.89394">
        <ele>1535.22</ele>
        <time>2022-09-11T11:13:07.000Z</time>
      </trkpt>
      <trkpt lat="42.14092" lon="8.89416">
        <ele>1539.32</ele>
        <time>2022-09-11T11:13:35.000Z</time>
      </trkpt>
      <trkpt lat="42.141" lon="8.89439">
        <ele>1545.29</ele>
        <time>2022-09-11T11:14:04.000Z</time>
      </trkpt>
      <trkpt lat="42.14097" lon="8.89463">
        <ele>1553.46</ele>
        <time>2022-09-11T11:14:43.000Z</time>
      </trkpt>
      <trkpt lat="42.14101" lon="8.89487">
        <ele>1560.78</ele>
        <time>2022-09-11T11:15:43.000Z</time>
      </trkpt>
      <trkpt lat="42.14103" lon="8.89511">
        <ele>1566.59</ele>
        <time>2022-09-11T11:16:20.000Z</time>
      </trkpt>
      <trkpt lat="42.141" lon="8.89535">
        <ele>1579.12</ele>
        <time>2022-09-11T11:17:08.000Z</time>
      </trkpt>
      <trkpt lat="42.14106" lon="8.89558">
        <ele>1587.11</ele>
        <time>2022-09-11T11:17:49.000Z</time>
      </trkpt>
      <trkpt lat="42.1411" lon="8.89582">
        <ele>1592.87</ele>
        <time>2022-09-11T11:18:20.000Z</time>
      </trkpt>
      <trkpt lat="42.14111" lon="8.89607">
        <ele>1601.73</ele>
        <time>2022-09-11T11:18:58.000Z</time>
      </trkpt>
      <trkpt lat="42.14114" lon="8.89631">
        <ele>1604.07</ele>
        <time>2022-09-11T11:19:29.000Z</time>
      </trkpt>
      <trkpt lat="42.14111" lon="8.89655">
        <ele>1611.42</ele>
        <time>2022-09-11T11:20:02.000Z</time>
      </trkpt>
      <trkpt lat="42.14112" lon="8.89679">
        <ele>1617.34</ele>
        <time>2022-09-11T11:20:36.000Z</time>
      </trkpt>
      <trkpt lat="42.14113" lon="8.89704">
        <ele>1616.5</ele>
        <time>2022-09-11T11:21:22.000Z</time>
      </trkpt>
      <trkpt lat="42.14129" lon="8.89716">
        <ele>1624.81</ele>
        <time>2022-09-11T11:23:49.000Z</time>
      </trkpt>
      <trkpt lat="42.14132" lon="8.89741">
        <ele>1621.76</ele>
        <time>2022-09-11T11:24:15.000Z</time>
      </trkpt>
      <trkpt lat="42.14135" lon="8.89765">
        <ele>1623.62</ele>
        <time>2022-09-11T11:24:48.000Z</time>
      </trkpt>
      <trkpt lat="42.14129" lon="8.89741">
        <ele>1618.61</ele>
        <time>2022-09-11T11:27:08.000Z</time>
      </trkpt>
      <trkpt lat="42.14126" lon="8.89716">
        <ele>1621.63</ele>
        <time>2022-09-11T11:27:31.000Z</time>
      </trkpt>
      <trkpt lat="42.14114" lon="8.89696">
        <ele>1627.54</ele>
        <time>2022-09-11T12:13:55.000Z</time>
      </trkpt>
      <trkpt lat="42.14101" lon="8.89714">
        <ele>1621.81</ele>
        <time>2022-09-11T12:14:34.000Z</time>
      </trkpt>
      <trkpt lat="42.14085" lon="8.89701">
        <ele>1620.13</ele>
        <time>2022-09-11T12:14:55.000Z</time>
      </trkpt>
      <trkpt lat="42.1407" lon="8.89687">
        <ele>1612.93</ele>
        <time>2022-09-11T12:15:24.000Z</time>
      </trkpt>
      <trkpt lat="42.14066" lon="8.89662">
        <ele>1609.94</ele>
        <time>2022-09-11T12:16:00.000Z</time>
      </trkpt>
      <trkpt lat="42.1407" lon="8.89637">
        <ele>1603.47</ele>
        <time>2022-09-11T12:16:33.000Z</time>
      </trkpt>
      <trkpt lat="42.1408" lon="8.89615">
        <ele>1599.77</ele>
        <time>2022-09-11T12:17:02.000Z</time>
      </trkpt>
      <trkpt lat="42.14069" lon="8.89594">
        <ele>1593.13</ele>
        <time>2022-09-11T12:17:44.000Z</time>
      </trkpt>
      <trkpt lat="42.14053" lon="8.89581">
        <ele>1589.29</ele>
        <time>2022-09-11T12:18:09.000Z</time>
      </trkpt>
      <trkpt lat="42.14037" lon="8.89569">
        <ele>1581.69</ele>
        <time>2022-09-11T12:18:33.000Z</time>
      </trkpt>
      <trkpt lat="42.14027" lon="8.89547">
        <ele>1576.55</ele>
        <time>2022-09-11T12:18:58.000Z</time>
      </trkpt>
      <trkpt lat="42.14012" lon="8.89532">
        <ele>1570.79</ele>
        <time>2022-09-11T12:19:17.000Z</time>
      </trkpt>
      <trkpt lat="42.13995" lon="8.89522">
        <ele>1567.74</ele>
        <time>2022-09-11T12:19:34.000Z</time>
      </trkpt>
      <trkpt lat="42.13986" lon="8.895">
        <ele>1562.08</ele>
        <time>2022-09-11T12:19:53.000Z</time>
      </trkpt>
      <trkpt lat="42.13969" lon="8.8949">
        <ele>1554.29</ele>
        <time>2022-09-11T12:20:34.000Z</time>
      </trkpt>
      <trkpt lat="42.1395" lon="8.89496">
        <ele>1542.15</ele>
        <time>2022-09-11T12:21:16.000Z</time>
      </trkpt>
      <trkpt lat="42.13933" lon="8.89504">
        <ele>1548.04</ele>
        <time>2022-09-11T12:21:38.000Z</time>
      </trkpt>
      <trkpt lat="42.13917" lon="8.89492">
        <ele>1538.88</ele>
        <time>2022-09-11T12:22:01.000Z</time>
      </trkpt>
      <trkpt lat="42.13898" lon="8.89488">
        <ele>1530.58</ele>
        <time>2022-09-11T12:22:25.000Z</time>
      </trkpt>
      <trkpt lat="42.13881" lon="8.89478">
        <ele>1522.58</ele>
        <time>2022-09-11T12:22:45.000Z</time>
      </trkpt>
      <trkpt lat="42.13863" lon="8.89472">
        <ele>1513.3</ele>
        <time>2022-09-11T12:23:14.000Z</time>
      </trkpt>
      <trkpt lat="42.13846" lon="8.89462">
        <ele>1501.21</ele>
        <time>2022-09-11T12:23:53.000Z</time>
      </trkpt>
      <trkpt lat="42.13828" lon="8.89457">
        <ele>1495.6</ele>
        <time>2022-09-11T12:24:19.000Z</time>
      </trkpt>
      <trkpt lat="42.13811" lon="8.8945">
        <ele>1486.97</ele>
        <time>2022-09-11T12:24:44.000Z</time>
      </trkpt>
      <trkpt lat="42.13795" lon="8.89438">
        <ele>1484.58</ele>
        <time>2022-09-11T12:25:02.000Z</time>
      </trkpt>
      <trkpt lat="42.1378" lon="8.89424">
        <ele>1478.49</ele>
        <time>2022-09-11T12:26:06.000Z</time>
      </trkpt>
      <trkpt lat="42.13767" lon="8.89442">
        <ele>1473.23</ele>
        <time>2022-09-11T12:26:54.000Z</time>
      </trkpt>
      <trkpt lat="42.13749" lon="8.89437">
        <ele>1465.2</ele>
        <time>2022-09-11T12:27:43.000Z</time>
      </trkpt>
      <trkpt lat="42.13744" lon="8.89414">
        <ele>1438.98</ele>
        <time>2022-09-11T12:28:27.000Z</time>
      </trkpt>
      <trkpt lat="42.13728" lon="8.89402">
        <ele>1429.5</ele>
        <time>2022-09-11T12:28:56.000Z</time>
      </trkpt>
      <trkpt lat="42.13711" lon="8.89392">
        <ele>1421.15</ele>
        <time>2022-09-11T12:29:25.000Z</time>
      </trkpt>
      <trkpt lat="42.137" lon="8.89411">
        <ele>1411.62</ele>
        <time>2022-09-11T12:29:50.000Z</time>
      </trkpt>
      <trkpt lat="42.13686" lon="8.89393">
        <ele>1408.86</ele>
        <time>2022-09-11T12:30:14.000Z</time>
      </trkpt>
      <trkpt lat="42.1368" lon="8.89371">
        <ele>1405.39</ele>
        <time>2022-09-11T12:30:36.000Z</time>
      </trkpt>
      <trkpt lat="42.13666" lon="8.89357">
        <ele>1398.91</ele>
        <time>2022-09-11T12:30:59.000Z</time>
      </trkpt>
      <trkpt lat="42.13647" lon="8.89358">
        <ele>1391.38</ele>
        <time>2022-09-11T12:31:23.000Z</time>
      </trkpt>
      <trkpt lat="42.13632" lon="8.89345">
        <ele>1386.5</ele>
        <time>2022-09-11T12:31:40.000Z</time>
      </trkpt>
      <trkpt lat="42.13614" lon="8.89337">
        <ele>1376.45</ele>
        <time>2022-09-11T12:32:11.000Z</time>
      </trkpt>
      <trkpt lat="42.13601" lon="8.8932">
        <ele>1374.01</ele>
        <time>2022-09-11T12:32:38.000Z</time>
      </trkpt>
      <trkpt lat="42.13582" lon="8.89323">
        <ele>1363.03</ele>
        <time>2022-09-11T12:33:11.000Z</time>
      </trkpt>
      <trkpt lat="42.13562" lon="8.89326">
        <ele>1361.28</ele>
        <time>2022-09-11T12:33:39.000Z</time>
      </trkpt>
      <trkpt lat="42.13558" lon="8.89349">
        <ele>1352.47</ele>
        <time>2022-09-11T12:34:10.000Z</time>
      </trkpt>
      <trkpt lat="42.13541" lon="8.89362">
        <ele>1341.92</ele>
        <time>2022-09-11T12:35:00.000Z</time>
      </trkpt>
      <trkpt lat="42.13523" lon="8.89364">
        <ele>1340.01</ele>
        <time>2022-09-11T12:35:23.000Z</time>
      </trkpt>
      <trkpt lat="42.13507" lon="8.89375">
        <ele>1326.17</ele>
        <time>2022-09-11T12:36:08.000Z</time>
      </trkpt>
      <trkpt lat="42.13493" lon="8.89358">
        <ele>1319.11</ele>
        <time>2022-09-11T12:36:45.000Z</time>
      </trkpt>
      <trkpt lat="42.13484" lon="8.89379">
        <ele>1307.05</ele>
        <time>2022-09-11T12:37:35.000Z</time>
      </trkpt>
      <trkpt lat="42.13466" lon="8.89376">
        <ele>1300.91</ele>
        <time>2022-09-11T12:38:05.000Z</time>
      </trkpt>
      <trkpt lat="42.13447" lon="8.89386">
        <ele>1291.22</ele>
        <time>2022-09-11T12:38:38.000Z</time>
      </trkpt>
      <trkpt lat="42.13432" lon="8.89372">
        <ele>1290.15</ele>
        <time>2022-09-11T12:39:09.000Z</time>
      </trkpt>
      <trkpt lat="42.13416" lon="8.89385">
        <ele>1281.7</ele>
        <time>2022-09-11T12:39:59.000Z</time>
      </trkpt>
      <trkpt lat="42.13398" lon="8.89381">
        <ele>1264.7</ele>
        <time>2022-09-11T12:40:48.000Z</time>
      </trkpt>
      <trkpt lat="42.1338" lon="8.89389">
        <ele>1265.87</ele>
        <time>2022-09-11T12:41:27.000Z</time>
      </trkpt>
      <trkpt lat="42.13364" lon="8.89399">
        <ele>1250</ele>
        <time>2022-09-11T12:42:17.000Z</time>
      </trkpt>
      <trkpt lat="42.13345" lon="8.894">
        <ele>1242.09</ele>
        <time>2022-09-11T12:42:43.000Z</time>
      </trkpt>
      <trkpt lat="42.13327" lon="8.89406">
        <ele>1234.01</ele>
        <time>2022-09-11T12:43:06.000Z</time>
      </trkpt>
      <trkpt lat="42.13309" lon="8.89411">
        <ele>1227.16</ele>
        <time>2022-09-11T12:43:23.000Z</time>
      </trkpt>
      <trkpt lat="42.13291" lon="8.89407">
        <ele>1221.85</ele>
        <time>2022-09-11T12:43:39.000Z</time>
      </trkpt>
      <trkpt lat="42.13276" lon="8.89423">
        <ele>1219.97</ele>
        <time>2022-09-11T12:44:40.000Z</time>
      </trkpt>
      <trkpt lat="42.13261" lon="8.89438">
        <ele>1216.98</ele>
        <time>2022-09-11T12:45:30.000Z</time>
      </trkpt>
      <trkpt lat="42.13251" lon="8.89416">
        <ele>1215.79</ele>
        <time>2022-09-11T12:46:08.000Z</time>
      </trkpt>
      <trkpt lat="42.13254" lon="8.89441">
        <ele>1200.59</ele>
        <time>2022-09-11T12:47:26.000Z</time>
      </trkpt>
      <trkpt lat="42.13236" lon="8.89437">
        <ele>1195.04</ele>
        <time>2022-09-11T12:48:21.000Z</time>
      </trkpt>
      <trkpt lat="42.12825" lon="8.89439">
        <ele>1097.64</ele>
        <time>2022-09-11T13:09:47.000Z</time>
      </trkpt>
      <trkpt lat="42.12808" lon="8.89427">
        <ele>1095.03</ele>
        <time>2022-09-11T13:10:07.000Z</time>
      </trkpt>
      <trkpt lat="42.12793" lon="8.89413">
        <ele>1093.42</ele>
        <time>2022-09-11T13:10:25.000Z</time>
      </trkpt>
      <trkpt lat="42.12785" lon="8.89391">
        <ele>1090.73</ele>
        <time>2022-09-11T13:10:45.000Z</time>
      </trkpt>
      <trkpt lat="42.12782" lon="8.89367">
        <ele>1079.69</ele>
        <time>2022-09-11T13:11:36.000Z</time>
      </trkpt>
      <trkpt lat="42.12764" lon="8.89361">
        <ele>1072.04</ele>
        <time>2022-09-11T13:11:54.000Z</time>
      </trkpt>
      <trkpt lat="42.12748" lon="8.89373">
        <ele>1069.04</ele>
        <time>2022-09-11T13:12:19.000Z</time>
      </trkpt>
      <trkpt lat="42.12729" lon="8.8937">
        <ele>1064.07</ele>
        <time>2022-09-11T13:12:41.000Z</time>
      </trkpt>
      <trkpt lat="42.12712" lon="8.89361">
        <ele>1062.11</ele>
        <time>2022-09-11T13:13:10.000Z</time>
      </trkpt>
      <trkpt lat="42.12703" lon="8.89339">
        <ele>1049.4</ele>
        <time>2022-09-11T13:13:36.000Z</time>
      </trkpt>
      <trkpt lat="42.12685" lon="8.89333">
        <ele>1049.9</ele>
        <time>2022-09-11T13:13:54.000Z</time>
      </trkpt>
      <trkpt lat="42.12667" lon="8.89327">
        <ele>1048.18</ele>
        <time>2022-09-11T13:14:10.000Z</time>
      </trkpt>
      <trkpt lat="42.1265" lon="8.89317">
        <ele>1047.15</ele>
        <time>2022-09-11T13:14:27.000Z</time>
      </trkpt>
      <trkpt lat="42.12633" lon="8.89307">
        <ele>1049.57</ele>
        <time>2022-09-11T13:14:43.000Z</time>
      </trkpt>
      <trkpt lat="42.12618" lon="8.89292">
        <ele>1051.08</ele>
        <time>2022-09-11T13:14:59.000Z</time>
      </trkpt>
      <trkpt lat="42.12607" lon="8.89272">
        <ele>1049.71</ele>
        <time>2022-09-11T13:15:13.000Z</time>
      </trkpt>
      <trkpt lat="42.12597" lon="8.8925">
        <ele>1048.25</ele>
        <time>2022-09-11T13:15:26.000Z</time>
      </trkpt>
      <trkpt lat="42.12586" lon="8.8923">
        <ele>1049.42</ele>
        <time>2022-09-11T13:15:41.000Z</time>
      </trkpt>
      <trkpt lat="42.1257" lon="8.89215">
        <ele>1049.56</ele>
        <time>2022-09-11T13:16:00.000Z</time>
      </trkpt>
      <trkpt lat="42.12559" lon="8.89196">
        <ele>1047.61</ele>
        <time>2022-09-11T13:16:21.000Z</time>
      </trkpt>
      <trkpt lat="42.12543" lon="8.89182">
        <ele>1048.46</ele>
        <time>2022-09-11T13:16:37.000Z</time>
      </trkpt>
      <trkpt lat="42.12528" lon="8.89168">
        <ele>1050.12</ele>
        <time>2022-09-11T13:16:57.000Z</time>
      </trkpt>
      <trkpt lat="42.12519" lon="8.89146">
        <ele>1052.31</ele>
        <time>2022-09-11T13:17:21.000Z</time>
      </trkpt>
      <trkpt lat="42.12515" lon="8.89122">
        <ele>1050.81</ele>
        <time>2022-09-11T13:17:47.000Z</time>
      </trkpt>
      <trkpt lat="42.12497" lon="8.89113">
        <ele>1038.29</ele>
        <time>2022-09-11T13:19:04.000Z</time>
      </trkpt>
      <trkpt lat="42.12484" lon="8.89096">
        <ele>1027.4</ele>
        <time>2022-09-11T13:19:47.000Z</time>
      </trkpt>
      <trkpt lat="42.12488" lon="8.89072">
        <ele>1018.48</ele>
        <time>2022-09-11T13:20:08.000Z</time>
      </trkpt>
      <trkpt lat="42.12472" lon="8.8906">
        <ele>1013.94</ele>
        <time>2022-09-11T13:20:42.000Z</time>
      </trkpt>
      <trkpt lat="42.12463" lon="8.89038">
        <ele>1007.73</ele>
        <time>2022-09-11T13:20:58.000Z</time>
      </trkpt>
      <trkpt lat="42.1245" lon="8.89019">
        <ele>1004.24</ele>
        <time>2022-09-11T13:21:18.000Z</time>
      </trkpt>
      <trkpt lat="42.12435" lon="8.89003">
        <ele>998.73</ele>
        <time>2022-09-11T13:21:36.000Z</time>
      </trkpt>
      <trkpt lat="42.12424" lon="8.88982">
        <ele>990.73</ele>
        <time>2022-09-11T13:21:54.000Z</time>
      </trkpt>
      <trkpt lat="42.12411" lon="8.88964">
        <ele>988.23</ele>
        <time>2022-09-11T13:22:09.000Z</time>
      </trkpt>
      <trkpt lat="42.124" lon="8.88944">
        <ele>987.92</ele>
        <time>2022-09-11T13:22:22.000Z</time>
      </trkpt>
      <trkpt lat="42.12382" lon="8.88942">
        <ele>984.05</ele>
        <time>2022-09-11T13:23:10.000Z</time>
      </trkpt>
      <trkpt lat="42.12377" lon="8.88918">
        <ele>977.11</ele>
        <time>2022-09-11T13:23:36.000Z</time>
      </trkpt>
      <trkpt lat="42.12363" lon="8.88904">
        <ele>971.77</ele>
        <time>2022-09-11T13:23:57.000Z</time>
      </trkpt>
      <trkpt lat="42.12348" lon="8.88889">
        <ele>967.76</ele>
        <time>2022-09-11T13:24:15.000Z</time>
      </trkpt>
      <trkpt lat="42.12334" lon="8.88872">
        <ele>968.49</ele>
        <time>2022-09-11T13:24:33.000Z</time>
      </trkpt>
      <trkpt lat="42.12317" lon="8.88864">
        <ele>965.18</ele>
        <time>2022-09-11T13:25:03.000Z</time>
      </trkpt>
      <trkpt lat="42.12305" lon="8.88845">
        <ele>960.47</ele>
        <time>2022-09-11T13:25:45.000Z</time>
      </trkpt>
      <trkpt lat="42.12295" lon="8.88824">
        <ele>954.76</ele>
        <time>2022-09-11T13:26:02.000Z</time>
      </trkpt>
      <trkpt lat="42.1228" lon="8.8881">
        <ele>953.67</ele>
        <time>2022-09-11T13:26:17.000Z</time>
      </trkpt>
      <trkpt lat="42.12265" lon="8.88795">
        <ele>949.51</ele>
        <time>2022-09-11T13:26:32.000Z</time>
      </trkpt>
      <trkpt lat="42.12248" lon="8.88785">
        <ele>943.62</ele>
        <time>2022-09-11T13:26:49.000Z</time>
      </trkpt>
      <trkpt lat="42.12231" lon="8.88777">
        <ele>941.77</ele>
        <time>2022-09-11T13:27:05.000Z</time>
      </trkpt>
      <trkpt lat="42.12219" lon="8.88759">
        <ele>939.26</ele>
        <time>2022-09-11T13:27:28.000Z</time>
      </trkpt>
      <trkpt lat="42.12206" lon="8.88741">
        <ele>935.19</ele>
        <time>2022-09-11T13:27:43.000Z</time>
      </trkpt>
      <trkpt lat="42.12193" lon="8.88723">
        <ele>929.94</ele>
        <time>2022-09-11T13:28:01.000Z</time>
      </trkpt>
      <trkpt lat="42.12177" lon="8.88712">
        <ele>927.96</ele>
        <time>2022-09-11T13:28:17.000Z</time>
      </trkpt>
      <trkpt lat="42.1216" lon="8.887">
        <ele>925.97</ele>
        <time>2022-09-11T13:28:31.000Z</time>
      </trkpt>
      <trkpt lat="42.12142" lon="8.88693">
        <ele>923.73</ele>
        <time>2022-09-11T13:28:45.000Z</time>
      </trkpt>
      <trkpt lat="42.12124" lon="8.88685">
        <ele>924.36</ele>
        <time>2022-09-11T13:29:28.000Z</time>
      </trkpt>
      <trkpt lat="42.1211" lon="8.88669">
        <ele>924.08</ele>
        <time>2022-09-11T13:29:46.000Z</time>
      </trkpt>
      <trkpt lat="42.12094" lon="8.88656">
        <ele>929.08</ele>
        <time>2022-09-11T13:30:04.000Z</time>
      </trkpt>
      <trkpt lat="42.12079" lon="8.88643">
        <ele>936.26</ele>
        <time>2022-09-11T13:31:08.000Z</time>
      </trkpt>
      <trkpt lat="42.12063" lon="8.88628">
        <ele>928.16</ele>
        <time>2022-09-11T13:31:25.000Z</time>
      </trkpt>
      <trkpt lat="42.12045" lon="8.88622">
        <ele>924.84</ele>
        <time>2022-09-11T13:31:40.000Z</time>
      </trkpt>
      <trkpt lat="42.12027" lon="8.88614">
        <ele>922.64</ele>
        <time>2022-09-11T13:31:53.000Z</time>
      </trkpt>
      <trkpt lat="42.12008" lon="8.88609">
        <ele>924.98</ele>
        <time>2022-09-11T13:32:07.000Z</time>
      </trkpt>
      <trkpt lat="42.11991" lon="8.88599">
        <ele>927.6</ele>
        <time>2022-09-11T13:32:20.000Z</time>
      </trkpt>
      <trkpt lat="42.11972" lon="8.88592">
        <ele>931.17</ele>
        <time>2022-09-11T13:32:34.000Z</time>
      </trkpt>
      <trkpt lat="42.11954" lon="8.88582">
        <ele>934.96</ele>
        <time>2022-09-11T13:32:47.000Z</time>
      </trkpt>
      <trkpt lat="42.11938" lon="8.88572">
        <ele>938.43</ele>
        <time>2022-09-11T13:33:01.000Z</time>
      </trkpt>
      <trkpt lat="42.1192" lon="8.88565">
        <ele>939.74</ele>
        <time>2022-09-11T13:33:17.000Z</time>
      </trkpt>
      <trkpt lat="42.11904" lon="8.88551">
        <ele>940.13</ele>
        <time>2022-09-11T13:33:31.000Z</time>
      </trkpt>
      <trkpt lat="42.11886" lon="8.88545">
        <ele>939.06</ele>
        <time>2022-09-11T13:33:48.000Z</time>
      </trkpt>
      <trkpt lat="42.11868" lon="8.88538">
        <ele>934.29</ele>
        <time>2022-09-11T13:34:02.000Z</time>
      </trkpt>
      <trkpt lat="42.11851" lon="8.88529">
        <ele>935.03</ele>
        <time>2022-09-11T13:34:15.000Z</time>
      </trkpt>
      <trkpt lat="42.11844" lon="8.88506">
        <ele>928.54</ele>
        <time>2022-09-11T13:34:31.000Z</time>
      </trkpt>
      <trkpt lat="42.11825" lon="8.88503">
        <ele>927.81</ele>
        <time>2022-09-11T13:34:48.000Z</time>
      </trkpt>
      <trkpt lat="42.11812" lon="8.88488">
        <ele>925.2</ele>
        <time>2022-09-11T13:35:06.000Z</time>
      </trkpt>
      <trkpt lat="42.11801" lon="8.88467">
        <ele>920.82</ele>
        <time>2022-09-11T13:35:21.000Z</time>
      </trkpt>
      <trkpt lat="42.11791" lon="8.88446">
        <ele>919.4</ele>
        <time>2022-09-11T13:35:37.000Z</time>
      </trkpt>
      <trkpt lat="42.11789" lon="8.88418">
        <ele>917.25</ele>
        <time>2022-09-11T13:36:20.000Z</time>
      </trkpt>
      <trkpt lat="42.11779" lon="8.88398">
        <ele>908.59</ele>
        <time>2022-09-11T13:37:05.000Z</time>
      </trkpt>
      <trkpt lat="42.11777" lon="8.88373">
        <ele>900.09</ele>
        <time>2022-09-11T13:37:28.000Z</time>
      </trkpt>
      <trkpt lat="42.1176" lon="8.88368">
        <ele>892.2</ele>
        <time>2022-09-11T13:38:05.000Z</time>
      </trkpt>
      <trkpt lat="42.11741" lon="8.88365">
        <ele>886.05</ele>
        <time>2022-09-11T13:38:25.000Z</time>
      </trkpt>
      <trkpt lat="42.11729" lon="8.88346">
        <ele>882.52</ele>
        <time>2022-09-11T13:38:46.000Z</time>
      </trkpt>
      <trkpt lat="42.11713" lon="8.88334">
        <ele>880.41</ele>
        <time>2022-09-11T13:39:14.000Z</time>
      </trkpt>
      <trkpt lat="42.11695" lon="8.88328">
        <ele>872.25</ele>
        <time>2022-09-11T13:39:36.000Z</time>
      </trkpt>
      <trkpt lat="42.117" lon="8.88304">
        <ele>865.94</ele>
        <time>2022-09-11T13:39:55.000Z</time>
      </trkpt>
      <trkpt lat="42.11682" lon="8.88309">
        <ele>861.41</ele>
        <time>2022-09-11T13:40:59.000Z</time>
      </trkpt>
      <trkpt lat="42.117" lon="8.88304">
        <ele>864.52</ele>
        <time>2022-09-11T13:42:39.000Z</time>
      </trkpt>
      <trkpt lat="42.11694" lon="8.8828">
        <ele>865.46</ele>
        <time>2022-09-11T13:43:24.000Z</time>
      </trkpt>
      <trkpt lat="42.11676" lon="8.88274">
        <ele>863.86</ele>
        <time>2022-09-11T13:44:23.000Z</time>
      </trkpt>
      <trkpt lat="42.11658" lon="8.88275">
        <ele>851.21</ele>
        <time>2022-09-11T13:45:35.000Z</time>
      </trkpt>
      <trkpt lat="42.11652" lon="8.88298">
        <ele>847.46</ele>
        <time>2022-09-11T13:46:20.000Z</time>
      </trkpt>
      <trkpt lat="42.11633" lon="8.88299">
        <ele>838.39</ele>
        <time>2022-09-11T13:47:29.000Z</time>
      </trkpt>
      <trkpt lat="42.1162" lon="8.88283">
        <ele>834.42</ele>
        <time>2022-09-11T13:47:50.000Z</time>
      </trkpt>
      <trkpt lat="42.11606" lon="8.88266">
        <ele>828.25</ele>
        <time>2022-09-11T13:48:13.000Z</time>
      </trkpt>
      <trkpt lat="42.11594" lon="8.88248">
        <ele>825.69</ele>
        <time>2022-09-11T13:48:36.000Z</time>
      </trkpt>
      <trkpt lat="42.11593" lon="8.88223">
        <ele>823.97</ele>
        <time>2022-09-11T13:48:58.000Z</time>
      </trkpt>
      <trkpt lat="42.11583" lon="8.88203">
        <ele>820.78</ele>
        <time>2022-09-11T13:49:16.000Z</time>
      </trkpt>
      <trkpt lat="42.11565" lon="8.88197">
        <ele>813.69</ele>
        <time>2022-09-11T13:49:52.000Z</time>
      </trkpt>
      <trkpt lat="42.11552" lon="8.8818">
        <ele>808.22</ele>
        <time>2022-09-11T13:50:13.000Z</time>
      </trkpt>
      <trkpt lat="42.11542" lon="8.8816">
        <ele>797.02</ele>
        <time>2022-09-11T13:52:09.000Z</time>
      </trkpt>
      <trkpt lat="42.11531" lon="8.88139">
        <ele>790.91</ele>
        <time>2022-09-11T13:52:39.000Z</time>
      </trkpt>
      <trkpt lat="42.11528" lon="8.88114">
        <ele>785.4</ele>
        <time>2022-09-11T13:53:03.000Z</time>
      </trkpt>
      <trkpt lat="42.11516" lon="8.88096">
        <ele>781.76</ele>
        <time>2022-09-11T13:53:32.000Z</time>
      </trkpt>
      <trkpt lat="42.11499" lon="8.88085">
        <ele>777.27</ele>
        <time>2022-09-11T13:54:02.000Z</time>
      </trkpt>
      <trkpt lat="42.11515" lon="8.88071">
        <ele>779.43</ele>
        <time>2022-09-11T13:54:59.000Z</time>
      </trkpt>
      <trkpt lat="42.11534" lon="8.88071">
        <ele>782.9</ele>
        <time>2022-09-11T13:55:15.000Z</time>
      </trkpt>
      <trkpt lat="42.11552" lon="8.88075">
        <ele>784.22</ele>
        <time>2022-09-11T13:55:32.000Z</time>
      </trkpt>
      <trkpt lat="42.11565" lon="8.88093">
        <ele>787.34</ele>
        <time>2022-09-11T13:55:50.000Z</time>
      </trkpt>
      <trkpt lat="42.11581" lon="8.88104">
        <ele>790.14</ele>
        <time>2022-09-11T13:56:09.000Z</time>
      </trkpt>
      <trkpt lat="42.11597" lon="8.88116">
        <ele>792.24</ele>
        <time>2022-09-11T13:56:25.000Z</time>
      </trkpt>
      <trkpt lat="42.11609" lon="8.88135">
        <ele>793.12</ele>
        <time>2022-09-11T13:56:47.000Z</time>
      </trkpt>
      <trkpt lat="42.11621" lon="8.88153">
        <ele>798.35</ele>
        <time>2022-09-11T13:57:03.000Z</time>
      </trkpt>
      <trkpt lat="42.11633" lon="8.88172">
        <ele>803.74</ele>
        <time>2022-09-11T13:57:22.000Z</time>
      </trkpt>
      <trkpt lat="42.11652" lon="8.88176">
        <ele>804.47</ele>
        <time>2022-09-11T13:57:41.000Z</time>
      </trkpt>
      <trkpt lat="42.1167" lon="8.88183">
        <ele>805.71</ele>
        <time>2022-09-11T13:57:59.000Z</time>
      </trkpt>
      <trkpt lat="42.11688" lon="8.8819">
        <ele>809.1</ele>
        <time>2022-09-11T13:58:17.000Z</time>
      </trkpt>
      <trkpt lat="42.11707" lon="8.88195">
        <ele>809.09</ele>
        <time>2022-09-11T13:58:34.000Z</time>
      </trkpt>
      <trkpt lat="42.11725" lon="8.88196">
        <ele>809.81</ele>
        <time>2022-09-11T13:58:51.000Z</time>
      </trkpt>
      <trkpt lat="42.11744" lon="8.88189">
        <ele>809.95</ele>
        <time>2022-09-11T13:59:07.000Z</time>
      </trkpt>
      <trkpt lat="42.11752" lon="8.88167">
        <ele>810.83</ele>
        <time>2022-09-11T13:59:25.000Z</time>
      </trkpt>
      <trkpt lat="42.11769" lon="8.88158">
        <ele>807.82</ele>
        <time>2022-09-11T13:59:38.000Z</time>
      </trkpt>
      <trkpt lat="42.11788" lon="8.88157">
        <ele>801.89</ele>
        <time>2022-09-11T13:59:52.000Z</time>
      </trkpt>
      <trkpt lat="42.11807" lon="8.8816">
        <ele>797.91</ele>
        <time>2022-09-11T14:00:07.000Z</time>
      </trkpt>
      <trkpt lat="42.11794" lon="8.88143">
        <ele>790.71</ele>
        <time>2022-09-11T14:00:32.000Z</time>
      </trkpt>
      <trkpt lat="42.11808" lon="8.88127">
        <ele>781.25</ele>
        <time>2022-09-11T14:00:51.000Z</time>
      </trkpt>
      <trkpt lat="42.11792" lon="8.88138">
        <ele>785.37</ele>
        <time>2022-09-11T14:01:59.000Z</time>
      </trkpt>
      <trkpt lat="42.11808" lon="8.88149">
        <ele>794.17</ele>
        <time>2022-09-11T14:02:23.000Z</time>
      </trkpt>
      <trkpt lat="42.11792" lon="8.88164">
        <ele>790.97</ele>
        <time>2022-09-11T14:03:05.000Z</time>
      </trkpt>
      <trkpt lat="42.11775" lon="8.8817">
        <ele>792.69</ele>
        <time>2022-09-11T14:03:24.000Z</time>
      </trkpt>
      <trkpt lat="42.11758" lon="8.8818">
        <ele>797.04</ele>
        <time>2022-09-11T14:03:42.000Z</time>
      </trkpt>
      <trkpt lat="42.11743" lon="8.88194">
        <ele>801.54</ele>
        <time>2022-09-11T14:04:08.000Z</time>
      </trkpt>
      <trkpt lat="42.11725" lon="8.88199">
        <ele>803.47</ele>
        <time>2022-09-11T14:04:26.000Z</time>
      </trkpt>
      <trkpt lat="42.11707" lon="8.88196">
        <ele>803.83</ele>
        <time>2022-09-11T14:04:44.000Z</time>
      </trkpt>
      <trkpt lat="42.11689" lon="8.88196">
        <ele>799.57</ele>
        <time>2022-09-11T14:04:58.000Z</time>
      </trkpt>
      <trkpt lat="42.11671" lon="8.88192">
        <ele>799.13</ele>
        <time>2022-09-11T14:05:11.000Z</time>
      </trkpt>
      <trkpt lat="42.11653" lon="8.88187">
        <ele>798.38</ele>
        <time>2022-09-11T14:05:27.000Z</time>
      </trkpt>
      <trkpt lat="42.11636" lon="8.88178">
        <ele>797.57</ele>
        <time>2022-09-11T14:05:42.000Z</time>
      </trkpt>
      <trkpt lat="42.11624" lon="8.88159">
        <ele>797.02</ele>
        <time>2022-09-11T14:05:55.000Z</time>
      </trkpt>
      <trkpt lat="42.11615" lon="8.88137">
        <ele>787.42</ele>
        <time>2022-09-11T14:06:54.000Z</time>
      </trkpt>
      <trkpt lat="42.11602" lon="8.8812">
        <ele>789.02</ele>
        <time>2022-09-11T14:07:07.000Z</time>
      </trkpt>
      <trkpt lat="42.11584" lon="8.88108">
        <ele>782.02</ele>
        <time>2022-09-11T14:07:19.000Z</time>
      </trkpt>
      <trkpt lat="42.11568" lon="8.88095">
        <ele>779.42</ele>
        <time>2022-09-11T14:07:32.000Z</time>
      </trkpt>
      <trkpt lat="42.11553" lon="8.88079">
        <ele>772.52</ele>
        <time>2022-09-11T14:07:47.000Z</time>
      </trkpt>
      <trkpt lat="42.11535" lon="8.88075">
        <ele>767.1</ele>
        <time>2022-09-11T14:08:00.000Z</time>
      </trkpt>
      <trkpt lat="42.11517" lon="8.88072">
        <ele>761.14</ele>
        <time>2022-09-11T14:08:13.000Z</time>
      </trkpt>
      <trkpt lat="42.11499" lon="8.88065">
        <ele>753.44</ele>
        <time>2022-09-11T14:08:26.000Z</time>
      </trkpt>
      <trkpt lat="42.11486" lon="8.88047">
        <ele>751.95</ele>
        <time>2022-09-11T14:08:41.000Z</time>
      </trkpt>
      <trkpt lat="42.11473" lon="8.88029">
        <ele>753.96</ele>
        <time>2022-09-11T14:08:55.000Z</time>
      </trkpt>
      <trkpt lat="42.11468" lon="8.88006">
        <ele>750.93</ele>
        <time>2022-09-11T14:09:10.000Z</time>
      </trkpt>
      <trkpt lat="42.11464" lon="8.87981">
        <ele>749.06</ele>
        <time>2022-09-11T14:09:25.000Z</time>
      </trkpt>
      <trkpt lat="42.11448" lon="8.87994">
        <ele>743.27</ele>
        <time>2022-09-11T14:09:43.000Z</time>
      </trkpt>
      <trkpt lat="42.1143" lon="8.88003">
        <ele>741.07</ele>
        <time>2022-09-11T14:09:57.000Z</time>
      </trkpt>
      <trkpt lat="42.11413" lon="8.87992">
        <ele>741.91</ele>
        <time>2022-09-11T14:10:12.000Z</time>
      </trkpt>
      <trkpt lat="42.11403" lon="8.87971">
        <ele>741.8</ele>
        <time>2022-09-11T14:10:26.000Z</time>
      </trkpt>
      <trkpt lat="42.11396" lon="8.87948">
        <ele>737.1</ele>
        <time>2022-09-11T14:10:42.000Z</time>
      </trkpt>
      <trkpt lat="42.11387" lon="8.87928">
        <ele>733.53</ele>
        <time>2022-09-11T14:10:59.000Z</time>
      </trkpt>
      <trkpt lat="42.11379" lon="8.87905">
        <ele>728</ele>
        <time>2022-09-11T14:11:16.000Z</time>
      </trkpt>
      <trkpt lat="42.1138" lon="8.8788">
        <ele>727.23</ele>
        <time>2022-09-11T14:11:31.000Z</time>
      </trkpt>
      <trkpt lat="42.11391" lon="8.8786">
        <ele>728.77</ele>
        <time>2022-09-11T14:12:25.000Z</time>
      </trkpt>
      <trkpt lat="42.11403" lon="8.87841">
        <ele>727.31</ele>
        <time>2022-09-11T14:12:41.000Z</time>
      </trkpt>
      <trkpt lat="42.11418" lon="8.87826">
        <ele>726.61</ele>
        <time>2022-09-11T14:12:55.000Z</time>
      </trkpt>
      <trkpt lat="42.11435" lon="8.87817">
        <ele>727.14</ele>
        <time>2022-09-11T14:13:09.000Z</time>
      </trkpt>
      <trkpt lat="42.11453" lon="8.87819">
        <ele>723.74</ele>
        <time>2022-09-11T14:13:28.000Z</time>
      </trkpt>
      <trkpt lat="42.1147" lon="8.87831">
        <ele>723.82</ele>
        <time>2022-09-11T14:13:43.000Z</time>
      </trkpt>
      <trkpt lat="42.11482" lon="8.87851">
        <ele>720.68</ele>
        <time>2022-09-11T14:13:58.000Z</time>
      </trkpt>
      <trkpt lat="42.11494" lon="8.8787">
        <ele>719.1</ele>
        <time>2022-09-11T14:14:12.000Z</time>
      </trkpt>
      <trkpt lat="42.11509" lon="8.87884">
        <ele>718.81</ele>
        <time>2022-09-11T14:14:26.000Z</time>
      </trkpt>
      <trkpt lat="42.11524" lon="8.87897">
        <ele>716.5</ele>
        <time>2022-09-11T14:14:40.000Z</time>
      </trkpt>
      <trkpt lat="42.11542" lon="8.879">
        <ele>714.98</ele>
        <time>2022-09-11T14:14:54.000Z</time>
      </trkpt>
      <trkpt lat="42.11561" lon="8.87896">
        <ele>715.99</ele>
        <time>2022-09-11T14:15:08.000Z</time>
      </trkpt>
      <trkpt lat="42.1158" lon="8.87897">
        <ele>717.98</ele>
        <time>2022-09-11T14:15:21.000Z</time>
      </trkpt>
      <trkpt lat="42.11597" lon="8.87906">
        <ele>712.15</ele>
        <time>2022-09-11T14:15:33.000Z</time>
      </trkpt>
      <trkpt lat="42.11612" lon="8.87919">
        <ele>709.67</ele>
        <time>2022-09-11T14:15:47.000Z</time>
      </trkpt>
      <trkpt lat="42.1163" lon="8.8793">
        <ele>709.1</ele>
        <time>2022-09-11T14:16:01.000Z</time>
      </trkpt>
      <trkpt lat="42.11647" lon="8.87938">
        <ele>706.86</ele>
        <time>2022-09-11T14:16:14.000Z</time>
      </trkpt>
      <trkpt lat="42.11666" lon="8.87936">
        <ele>705.69</ele>
        <time>2022-09-11T14:16:28.000Z</time>
      </trkpt>
      <trkpt lat="42.11684" lon="8.87932">
        <ele>704.93</ele>
        <time>2022-09-11T14:16:42.000Z</time>
      </trkpt>
      <trkpt lat="42.11702" lon="8.87929">
        <ele>703.66</ele>
        <time>2022-09-11T14:16:55.000Z</time>
      </trkpt>
      <trkpt lat="42.11718" lon="8.87919">
        <ele>701.72</ele>
        <time>2022-09-11T14:17:08.000Z</time>
      </trkpt>
      <trkpt lat="42.11733" lon="8.87901">
        <ele>702.34</ele>
        <time>2022-09-11T14:17:21.000Z</time>
      </trkpt>
      <trkpt lat="42.11751" lon="8.87893">
        <ele>700.93</ele>
        <time>2022-09-11T14:17:36.000Z</time>
      </trkpt>
      <trkpt lat="42.11768" lon="8.87898">
        <ele>700.78</ele>
        <time>2022-09-11T14:17:50.000Z</time>
      </trkpt>
      <trkpt lat="42.11786" lon="8.87907">
        <ele>699.55</ele>
        <time>2022-09-11T14:18:04.000Z</time>
      </trkpt>
      <trkpt lat="42.11804" lon="8.87912">
        <ele>700.44</ele>
        <time>2022-09-11T14:18:17.000Z</time>
      </trkpt>
      <trkpt lat="42.11822" lon="8.87919">
        <ele>698.15</ele>
        <time>2022-09-11T14:18:31.000Z</time>
      </trkpt>
      <trkpt lat="42.11836" lon="8.87933">
        <ele>691.48</ele>
        <time>2022-09-11T14:18:51.000Z</time>
      </trkpt>
      <trkpt lat="42.11851" lon="8.87948">
        <ele>679.3</ele>
        <time>2022-09-11T14:19:10.000Z</time>
      </trkpt>
      <trkpt lat="42.1187" lon="8.87947">
        <ele>679.59</ele>
        <time>2022-09-11T14:19:53.000Z</time>
      </trkpt>
      <trkpt lat="42.11889" lon="8.87948">
        <ele>687.13</ele>
        <time>2022-09-11T14:20:07.000Z</time>
      </trkpt>
      <trkpt lat="42.11903" lon="8.87965">
        <ele>687.54</ele>
        <time>2022-09-11T14:20:21.000Z</time>
      </trkpt>
      <trkpt lat="42.11915" lon="8.87985">
        <ele>688.46</ele>
        <time>2022-09-11T14:20:36.000Z</time>
      </trkpt>
      <trkpt lat="42.11929" lon="8.88">
        <ele>689.51</ele>
        <time>2022-09-11T14:20:49.000Z</time>
      </trkpt>
      <trkpt lat="42.11947" lon="8.88007">
        <ele>691.09</ele>
        <time>2022-09-11T14:21:02.000Z</time>
      </trkpt>
      <trkpt lat="42.11965" lon="8.88007">
        <ele>691.72</ele>
        <time>2022-09-11T14:21:14.000Z</time>
      </trkpt>
      <trkpt lat="42.11984" lon="8.88012">
        <ele>689.64</ele>
        <time>2022-09-11T14:21:27.000Z</time>
      </trkpt>
      <trkpt lat="42.12001" lon="8.8802">
        <ele>687.27</ele>
        <time>2022-09-11T14:21:40.000Z</time>
      </trkpt>
      <trkpt lat="42.12016" lon="8.88035">
        <ele>687.33</ele>
        <time>2022-09-11T14:21:57.000Z</time>
      </trkpt>
      <trkpt lat="42.12032" lon="8.88045">
        <ele>687.22</ele>
        <time>2022-09-11T14:22:29.000Z</time>
      </trkpt>
      <trkpt lat="42.1205" lon="8.88051">
        <ele>683.72</ele>
        <time>2022-09-11T14:22:44.000Z</time>
      </trkpt>
      <trkpt lat="42.12064" lon="8.88068">
        <ele>680.54</ele>
        <time>2022-09-11T14:22:57.000Z</time>
      </trkpt>
      <trkpt lat="42.12075" lon="8.88088">
        <ele>678.3</ele>
        <time>2022-09-11T14:23:12.000Z</time>
      </trkpt>
      <trkpt lat="42.12091" lon="8.88102">
        <ele>677.87</ele>
        <time>2022-09-11T14:23:24.000Z</time>
      </trkpt>
      <trkpt lat="42.12109" lon="8.88102">
        <ele>677.74</ele>
        <time>2022-09-11T14:23:37.000Z</time>
      </trkpt>
      <trkpt lat="42.12128" lon="8.88108">
        <ele>677.71</ele>
        <time>2022-09-11T14:23:50.000Z</time>
      </trkpt>
      <trkpt lat="42.12146" lon="8.88113">
        <ele>677.65</ele>
        <time>2022-09-11T14:24:03.000Z</time>
      </trkpt>
      <trkpt lat="42.12163" lon="8.88125">
        <ele>674.72</ele>
        <time>2022-09-11T14:24:15.000Z</time>
      </trkpt>
      <trkpt lat="42.12174" lon="8.88146">
        <ele>668.49</ele>
        <time>2022-09-11T14:24:27.000Z</time>
      </trkpt>
      <trkpt lat="42.12184" lon="8.88168">
        <ele>666.59</ele>
        <time>2022-09-11T14:24:41.000Z</time>
      </trkpt>
      <trkpt lat="42.12194" lon="8.8819">
        <ele>666.8</ele>
        <time>2022-09-11T14:24:54.000Z</time>
      </trkpt>
      <trkpt lat="42.12213" lon="8.88195">
        <ele>668.02</ele>
        <time>2022-09-11T14:25:08.000Z</time>
      </trkpt>
      <trkpt lat="42.12231" lon="8.88188">
        <ele>670.89</ele>
        <time>2022-09-11T14:25:32.000Z</time>
      </trkpt>
      <trkpt lat="42.1225" lon="8.8819">
        <ele>671.57</ele>
        <time>2022-09-11T14:25:46.000Z</time>
      </trkpt>
      <trkpt lat="42.12268" lon="8.88198">
        <ele>668.66</ele>
        <time>2022-09-11T14:26:01.000Z</time>
      </trkpt>
      <trkpt lat="42.12285" lon="8.88209">
        <ele>666.8</ele>
        <time>2022-09-11T14:26:15.000Z</time>
      </trkpt>
      <trkpt lat="42.12296" lon="8.8823">
        <ele>665.96</ele>
        <time>2022-09-11T14:26:27.000Z</time>
      </trkpt>
      <trkpt lat="42.12309" lon="8.88249">
        <ele>665.04</ele>
        <time>2022-09-11T14:26:41.000Z</time>
      </trkpt>
      <trkpt lat="42.12328" lon="8.88247">
        <ele>666.9</ele>
        <time>2022-09-11T14:26:53.000Z</time>
      </trkpt>
      <trkpt lat="42.12346" lon="8.88239">
        <ele>666.29</ele>
        <time>2022-09-11T14:27:05.000Z</time>
      </trkpt>
      <trkpt lat="42.12364" lon="8.88243">
        <ele>667.21</ele>
        <time>2022-09-11T14:27:19.000Z</time>
      </trkpt>
      <trkpt lat="42.12382" lon="8.88251">
        <ele>664.02</ele>
        <time>2022-09-11T14:28:07.000Z</time>
      </trkpt>
      <trkpt lat="42.124" lon="8.88259">
        <ele>662.97</ele>
        <time>2022-09-11T14:28:21.000Z</time>
      </trkpt>
      <trkpt lat="42.12418" lon="8.8826">
        <ele>663.21</ele>
        <time>2022-09-11T14:28:34.000Z</time>
      </trkpt>
      <trkpt lat="42.12436" lon="8.88265">
        <ele>661.77</ele>
        <time>2022-09-11T14:28:48.000Z</time>
      </trkpt>
      <trkpt lat="42.1245" lon="8.88282">
        <ele>661.73</ele>
        <time>2022-09-11T14:29:01.000Z</time>
      </trkpt>
      <trkpt lat="42.12463" lon="8.883">
        <ele>658.45</ele>
        <time>2022-09-11T14:29:14.000Z</time>
      </trkpt>
      <trkpt lat="42.12475" lon="8.8832">
        <ele>657.19</ele>
        <time>2022-09-11T14:29:26.000Z</time>
      </trkpt>
      <trkpt lat="42.12492" lon="8.88329">
        <ele>656.46</ele>
        <time>2022-09-11T14:29:38.000Z</time>
      </trkpt>
      <trkpt lat="42.12509" lon="8.88319">
        <ele>656.94</ele>
        <time>2022-09-11T14:29:51.000Z</time>
      </trkpt>
      <trkpt lat="42.12525" lon="8.88308">
        <ele>655.27</ele>
        <time>2022-09-11T14:30:04.000Z</time>
      </trkpt>
      <trkpt lat="42.12544" lon="8.8831">
        <ele>655.13</ele>
        <time>2022-09-11T14:30:18.000Z</time>
      </trkpt>
      <trkpt lat="42.12562" lon="8.88322">
        <ele>657.43</ele>
        <time>2022-09-11T14:30:32.000Z</time>
      </trkpt>
      <trkpt lat="42.12578" lon="8.88333">
        <ele>656.39</ele>
        <time>2022-09-11T14:30:45.000Z</time>
      </trkpt>
      <trkpt lat="42.12593" lon="8.88347">
        <ele>653.67</ele>
        <time>2022-09-11T14:30:57.000Z</time>
      </trkpt>
      <trkpt lat="42.12608" lon="8.88364">
        <ele>651.48</ele>
        <time>2022-09-11T14:31:09.000Z</time>
      </trkpt>
      <trkpt lat="42.12619" lon="8.88384">
        <ele>650.7</ele>
        <time>2022-09-11T14:31:21.000Z</time>
      </trkpt>
      <trkpt lat="42.12629" lon="8.88404">
        <ele>648.56</ele>
        <time>2022-09-11T14:31:33.000Z</time>
      </trkpt>
      <trkpt lat="42.12638" lon="8.88426">
        <ele>645.72</ele>
        <time>2022-09-11T14:31:45.000Z</time>
      </trkpt>
      <trkpt lat="42.12644" lon="8.88449">
        <ele>642.72</ele>
        <time>2022-09-11T14:32:10.000Z</time>
      </trkpt>
      <trkpt lat="42.12656" lon="8.88468">
        <ele>644.62</ele>
        <time>2022-09-11T14:32:25.000Z</time>
      </trkpt>
      <trkpt lat="42.12674" lon="8.88477">
        <ele>648.32</ele>
        <time>2022-09-11T14:32:41.000Z</time>
      </trkpt>
      <trkpt lat="42.12691" lon="8.88487">
        <ele>649.44</ele>
        <time>2022-09-11T14:32:55.000Z</time>
      </trkpt>
      <trkpt lat="42.12709" lon="8.88492">
        <ele>650.32</ele>
        <time>2022-09-11T14:33:09.000Z</time>
      </trkpt>
      <trkpt lat="42.12724" lon="8.88476">
        <ele>651.98</ele>
        <time>2022-09-11T14:33:24.000Z</time>
      </trkpt>
      <trkpt lat="42.12722" lon="8.88451">
        <ele>655.21</ele>
        <time>2022-09-11T14:33:37.000Z</time>
      </trkpt>
      <trkpt lat="42.12722" lon="8.88426">
        <ele>655.89</ele>
        <time>2022-09-11T14:33:51.000Z</time>
      </trkpt>
      <trkpt lat="42.12727" lon="8.88401">
        <ele>654.73</ele>
        <time>2022-09-11T14:34:05.000Z</time>
      </trkpt>
      <trkpt lat="42.1273" lon="8.88377">
        <ele>657.49</ele>
        <time>2022-09-11T14:34:18.000Z</time>
      </trkpt>
      <trkpt lat="42.12738" lon="8.88354">
        <ele>659.74</ele>
        <time>2022-09-11T14:34:31.000Z</time>
      </trkpt>
      <trkpt lat="42.12746" lon="8.8833">
        <ele>661.52</ele>
        <time>2022-09-11T14:34:45.000Z</time>
      </trkpt>
      <trkpt lat="42.12755" lon="8.88308">
        <ele>662.92</ele>
        <time>2022-09-11T14:34:58.000Z</time>
      </trkpt>
      <trkpt lat="42.12765" lon="8.88287">
        <ele>664.71</ele>
        <time>2022-09-11T14:35:11.000Z</time>
      </trkpt>
      <trkpt lat="42.12772" lon="8.88263">
        <ele>665.07</ele>
        <time>2022-09-11T14:35:24.000Z</time>
      </trkpt>
      <trkpt lat="42.12775" lon="8.88238">
        <ele>666.17</ele>
        <time>2022-09-11T14:35:37.000Z</time>
      </trkpt>
      <trkpt lat="42.1278" lon="8.88214">
        <ele>664.57</ele>
        <time>2022-09-11T14:35:51.000Z</time>
      </trkpt>
      <trkpt lat="42.12786" lon="8.88191">
        <ele>662.07</ele>
        <time>2022-09-11T14:36:12.000Z</time>
      </trkpt>
      <trkpt lat="42.12797" lon="8.8817">
        <ele>661.09</ele>
        <time>2022-09-11T14:36:25.000Z</time>
      </trkpt>
      <trkpt lat="42.12811" lon="8.88154">
        <ele>659.31</ele>
        <time>2022-09-11T14:36:38.000Z</time>
      </trkpt>
      <trkpt lat="42.12817" lon="8.8813">
        <ele>650.04</ele>
        <time>2022-09-11T14:37:00.000Z</time>
      </trkpt>
      <trkpt lat="42.12806" lon="8.88109">
        <ele>644.21</ele>
        <time>2022-09-11T14:37:15.000Z</time>
      </trkpt>
      <trkpt lat="42.12799" lon="8.88085">
        <ele>640.27</ele>
        <time>2022-09-11T14:37:29.000Z</time>
      </trkpt>
      <trkpt lat="42.12791" lon="8.88062">
        <ele>639.25</ele>
        <time>2022-09-11T14:37:45.000Z</time>
      </trkpt>
      <trkpt lat="42.12791" lon="8.88037">
        <ele>636.62</ele>
        <time>2022-09-11T14:38:00.000Z</time>
      </trkpt>
      <trkpt lat="42.12794" lon="8.88011">
        <ele>635.48</ele>
        <time>2022-09-11T14:38:15.000Z</time>
      </trkpt>
      <trkpt lat="42.12798" lon="8.87987">
        <ele>636.61</ele>
        <time>2022-09-11T14:38:28.000Z</time>
      </trkpt>
      <trkpt lat="42.12803" lon="8.87962">
        <ele>636.9</ele>
        <time>2022-09-11T14:38:42.000Z</time>
      </trkpt>
      <trkpt lat="42.12808" lon="8.87938">
        <ele>638.07</ele>
        <time>2022-09-11T14:38:55.000Z</time>
      </trkpt>
      <trkpt lat="42.12813" lon="8.87914">
        <ele>640.99</ele>
        <time>2022-09-11T14:39:08.000Z</time>
      </trkpt>
      <trkpt lat="42.12818" lon="8.87889">
        <ele>642.21</ele>
        <time>2022-09-11T14:39:21.000Z</time>
      </trkpt>
      <trkpt lat="42.12824" lon="8.87865">
        <ele>644.64</ele>
        <time>2022-09-11T14:39:34.000Z</time>
      </trkpt>
      <trkpt lat="42.12829" lon="8.87841">
        <ele>646.32</ele>
        <time>2022-09-11T14:39:47.000Z</time>
      </trkpt>
      <trkpt lat="42.12835" lon="8.87818">
        <ele>643.48</ele>
        <time>2022-09-11T14:40:01.000Z</time>
      </trkpt>
      <trkpt lat="42.12834" lon="8.87793">
        <ele>639.58</ele>
        <time>2022-09-11T14:40:16.000Z</time>
      </trkpt>
      <trkpt lat="42.12825" lon="8.87772">
        <ele>630.98</ele>
        <time>2022-09-11T14:40:32.000Z</time>
      </trkpt>
      <trkpt lat="42.12821" lon="8.87747">
        <ele>629.23</ele>
        <time>2022-09-11T14:40:47.000Z</time>
      </trkpt>
      <trkpt lat="42.12819" lon="8.87721">
        <ele>626.34</ele>
        <time>2022-09-11T14:41:02.000Z</time>
      </trkpt>
      <trkpt lat="42.12818" lon="8.87696">
        <ele>623.29</ele>
        <time>2022-09-11T14:41:16.000Z</time>
      </trkpt>
      <trkpt lat="42.12813" lon="8.87672">
        <ele>621.8</ele>
        <time>2022-09-11T14:41:31.000Z</time>
      </trkpt>
      <trkpt lat="42.12807" lon="8.87649">
        <ele>619.87</ele>
        <time>2022-09-11T14:41:45.000Z</time>
      </trkpt>
      <trkpt lat="42.128" lon="8.87625">
        <ele>619.68</ele>
        <time>2022-09-11T14:41:58.000Z</time>
      </trkpt>
      <trkpt lat="42.12795" lon="8.876">
        <ele>617.97</ele>
        <time>2022-09-11T14:42:12.000Z</time>
      </trkpt>
      <trkpt lat="42.12789" lon="8.87575">
        <ele>616.98</ele>
        <time>2022-09-11T14:42:26.000Z</time>
      </trkpt>
      <trkpt lat="42.12783" lon="8.87551">
        <ele>618.13</ele>
        <time>2022-09-11T14:42:40.000Z</time>
      </trkpt>
      <trkpt lat="42.12777" lon="8.87528">
        <ele>618.06</ele>
        <time>2022-09-11T14:42:53.000Z</time>
      </trkpt>
      <trkpt lat="42.12773" lon="8.87504">
        <ele>619.81</ele>
        <time>2022-09-11T14:43:06.000Z</time>
      </trkpt>
      <trkpt lat="42.12774" lon="8.87479">
        <ele>622.15</ele>
        <time>2022-09-11T14:43:20.000Z</time>
      </trkpt>
      <trkpt lat="42.12777" lon="8.87455">
        <ele>623.14</ele>
        <time>2022-09-11T14:43:38.000Z</time>
      </trkpt>
      <trkpt lat="42.12796" lon="8.87456">
        <ele>629.94</ele>
        <time>2022-09-11T14:44:11.000Z</time>
      </trkpt>
      <trkpt lat="42.12813" lon="8.87462">
        <ele>639.28</ele>
        <time>2022-09-11T14:44:29.000Z</time>
      </trkpt>
      <trkpt lat="42.12831" lon="8.8747">
        <ele>644.88</ele>
        <time>2022-09-11T14:44:46.000Z</time>
      </trkpt>
      <trkpt lat="42.12848" lon="8.8748">
        <ele>647.09</ele>
        <time>2022-09-11T14:45:01.000Z</time>
      </trkpt>
      <trkpt lat="42.12866" lon="8.87478">
        <ele>648.84</ele>
        <time>2022-09-11T14:45:16.000Z</time>
      </trkpt>
      <trkpt lat="42.12884" lon="8.87478">
        <ele>649.79</ele>
        <time>2022-09-11T14:45:32.000Z</time>
      </trkpt>
      <trkpt lat="42.12902" lon="8.87483">
        <ele>649.39</ele>
        <time>2022-09-11T14:45:48.000Z</time>
      </trkpt>
      <trkpt lat="42.12918" lon="8.87493">
        <ele>650.02</ele>
        <time>2022-09-11T14:46:04.000Z</time>
      </trkpt>
      <trkpt lat="42.12933" lon="8.87508">
        <ele>649.5</ele>
        <time>2022-09-11T14:46:25.000Z</time>
      </trkpt>
      <trkpt lat="42.12947" lon="8.87525">
        <ele>656.71</ele>
        <time>2022-09-11T14:47:16.000Z</time>
      </trkpt>
      <trkpt lat="42.12961" lon="8.87542">
        <ele>656.27</ele>
        <time>2022-09-11T14:47:33.000Z</time>
      </trkpt>
      <trkpt lat="42.12974" lon="8.87559">
        <ele>656.51</ele>
        <time>2022-09-11T14:47:49.000Z</time>
      </trkpt>
    </trkseg>
  </trk>
</gpx>